Terminal Aerodrome Forecast
Issued by NWS

Home | Current Version | Previous Version | Text Only | Print | Product List | Glossary On
Versions: 1 2 3 4 5 6 7 8 9 10 11 12 13 14 15 16
000
FTUS45 KGJT 221136
TAFMTJ
TAF
KMTJ 221136Z 2212/2312 14006KT P6SM BKN150
     FM221500 18010G19KT P6SM FEW090 SCT150
     FM221800 21017G30KT P6SM SCT090 BKN150
     FM230000 21011G20KT P6SM SCT090 BKN140
     FM230200 18006KT P6SM SCT090 BKN140
     FM230700 15005KT P6SM FEW080 SCT090=

USA.gov is the U.S. government's official web portal to all federal, state and local government web resources and services.